KGSB METAR and TAF | Updated Today

KGSB METAR

Seymour Johnson Air Force Base

Observation time: 56 min. ago

KGSB 261356Z 18004KT 10SM FEW050 FEW250 28/18 A3013 RMK AO2A SLP206 T02750179 $

Need help? Read our tutorial on how to read METARs or read the parsed version below.

Seymour Johnson Air Force Base (KGSB) METAR

  • Weather conditions on Sun, 26 Jun 2022 13:56:00 +0000 (56 min. ago):
  • Present conditions: Dry
  • Clouds: A few at 1524 meters; a few at 7620 meters
  • Visibility: 16093 meters
  • Wind: 180 degrees at 4 knots
  • Temperature: 28 celsius
  • Dew point: 18 celsius
  • Pressure: 30.13 inHg
  • Remarks: AO2A SLP206 T02750179 $


Useful to know...

KGSB TAF

Seymour Johnson Air Force Base

TAF KGSB 261200Z 2612/2718 VRB06KT 9999 SKC QNH3001INS BECMG 2700/2701 18008KT 9999 SCT040 QNH3001INS TX33/2621Z TN22/2612Z LAST NO AMDS AFT 2612 NEXT 2620
Observation time: 2:52 hr. ago
Need help? Read our tutorial on how to read TAFs or read the parsed version below.

Parsed version of TAF for Seymour Johnson Air Force Base (KGSB)

  • From 26 June at 12:00 UTC, to day 27 of the month at 18:00 UTC
  • Clouds: No significant changes expected
  • Visibility: Greater than 10 km
  • Wind: Variable at 6
  • Expected to arise soon, from 27 June at 00:00 UTC, to day 27 of the month at 01:00 UTC
  • Clouds: Scattered at 1219 meters
  • Visibility: Greater than 10 km
  • Wind: 180 degrees at 8